sensor_id;sensor_type;location;lat;lon;timestamp;P1;durP1;ratioP1;P2;durP2;ratioP2
10088;SDS011;51898;49.864;8.550;2023-05-07T00:01:00;3.97;;;2.77;;
10088;SDS011;51898;49.864;8.550;2023-05-07T00:04:03;3.73;;;2.80;;
10088;SDS011;51898;49.864;8.550;2023-05-07T00:07:05;2.80;;;2.60;;
10088;SDS011;51898;49.864;8.550;2023-05-07T00:10:07;3.40;;;2.73;;
10088;SDS011;51898;49.864;8.550;2023-05-07T00:13:09;2.90;;;2.63;;
10088;SDS011;51898;49.864;8.550;2023-05-07T00:16:11;2.90;;;2.60;;
10088;SDS011;51898;49.864;8.550;2023-05-07T00:19:13;3.00;;;2.80;;
10088;SDS011;51898;49.864;8.550;2023-05-07T00:22:16;2.50;;;2.30;;
10088;SDS011;51898;49.864;8.550;2023-05-07T00:25:18;4.60;;;2.77;;
10088;SDS011;51898;49.864;8.550;2023-05-07T00:28:20;3.13;;;2.77;;
10088;SDS011;51898;49.864;8.550;2023-05-07T00:31:22;2.70;;;2.50;;
10088;SDS011;51898;49.864;8.550;2023-05-07T00:34:23;3.17;;;2.40;;
10088;SDS011;51898;49.864;8.550;2023-05-07T00:37:25;2.93;;;2.63;;
10088;SDS011;51898;49.864;8.550;2023-05-07T00:40:27;2.53;;;2.33;;
10088;SDS011;51898;49.864;8.550;2023-05-07T00:43:28;4.00;;;2.77;;
10088;SDS011;51898;49.864;8.550;2023-05-07T00:46:30;2.90;;;2.70;;
10088;SDS011;51898;49.864;8.550;2023-05-07T00:49:37;5.13;;;2.90;;
10088;SDS011;51898;49.864;8.550;2023-05-07T00:52:41;3.13;;;2.77;;
10088;SDS011;51898;49.864;8.550;2023-05-07T00:55:43;2.90;;;2.70;;
10088;SDS011;51898;49.864;8.550;2023-05-07T00:58:45;3.40;;;3.10;;
10088;SDS011;51898;49.864;8.550;2023-05-07T01:01:46;3.87;;;2.90;;
10088;SDS011;51898;49.864;8.550;2023-05-07T01:04:48;3.33;;;2.77;;
10088;SDS011;51898;49.864;8.550;2023-05-07T01:07:51;2.90;;;2.60;;
10088;SDS011;51898;49.864;8.550;2023-05-07T01:10:55;3.13;;;2.83;;
10088;SDS011;51898;49.864;8.550;2023-05-07T01:13:58;3.20;;;2.50;;
10088;SDS011;51898;49.864;8.550;2023-05-07T01:17:00;2.97;;;2.67;;
10088;SDS011;51898;49.864;8.550;2023-05-07T01:20:02;3.40;;;2.87;;
10088;SDS011;51898;49.864;8.550;2023-05-07T01:23:06;7.47;;;3.37;;
10088;SDS011;51898;49.864;8.550;2023-05-07T01:26:08;4.20;;;3.13;;
10088;SDS011;51898;49.864;8.550;2023-05-07T01:29:10;2.70;;;2.50;;
10088;SDS011;51898;49.864;8.550;2023-05-07T01:32:12;4.63;;;3.27;;
10088;SDS011;51898;49.864;8.550;2023-05-07T01:35:18;5.70;;;3.00;;
10088;SDS011;51898;49.864;8.550;2023-05-07T01:38:23;7.20;;;2.70;;
10088;SDS011;51898;49.864;8.550;2023-05-07T01:41:25;3.23;;;2.90;;
10088;SDS011;51898;49.864;8.550;2023-05-07T01:44:27;3.13;;;2.83;;
10088;SDS011;51898;49.864;8.550;2023-05-07T01:47:29;2.60;;;2.37;;
10088;SDS011;51898;49.864;8.550;2023-05-07T01:50:32;3.40;;;3.10;;
10088;SDS011;51898;49.864;8.550;2023-05-07T01:53:38;4.90;;;3.50;;
10088;SDS011;51898;49.864;8.550;2023-05-07T01:56:40;3.13;;;2.83;;
10088;SDS011;51898;49.864;8.550;2023-05-07T01:59:42;3.57;;;2.83;;
10088;SDS011;51898;49.864;8.550;2023-05-07T02:02:43;3.70;;;3.10;;
10088;SDS011;51898;49.864;8.550;2023-05-07T02:05:45;3.27;;;2.97;;
10088;SDS011;51898;49.864;8.550;2023-05-07T02:08:47;5.00;;;3.43;;
10088;SDS011;51898;49.864;8.550;2023-05-07T02:11:48;3.40;;;3.10;;
10088;SDS011;51898;49.864;8.550;2023-05-07T02:14:50;4.07;;;3.63;;
10088;SDS011;51898;49.864;8.550;2023-05-07T02:18:01;3.47;;;3.17;;
10088;SDS011;51898;49.864;8.550;2023-05-07T02:21:08;4.30;;;3.90;;
10088;SDS011;51898;49.864;8.550;2023-05-07T02:24:10;3.70;;;3.40;;
10088;SDS011;51898;49.864;8.550;2023-05-07T02:27:12;4.27;;;3.53;;
10088;SDS011;51898;49.864;8.550;2023-05-07T02:30:13;3.40;;;3.10;;
10088;SDS011;51898;49.864;8.550;2023-05-07T02:33:16;4.77;;;3.77;;
10088;SDS011;51898;49.864;8.550;2023-05-07T02:36:17;4.03;;;3.73;;
10088;SDS011;51898;49.864;8.550;2023-05-07T02:39:19;4.70;;;3.73;;
10088;SDS011;51898;49.864;8.550;2023-05-07T02:42:20;3.83;;;3.53;;
10088;SDS011;51898;49.864;8.550;2023-05-07T02:45:22;4.03;;;3.73;;
10088;SDS011;51898;49.864;8.550;2023-05-07T02:48:24;4.23;;;3.83;;
10088;SDS011;51898;49.864;8.550;2023-05-07T02:51:25;4.30;;;3.90;;
10088;SDS011;51898;49.864;8.550;2023-05-07T02:54:28;4.30;;;3.83;;
10088;SDS011;51898;49.864;8.550;2023-05-07T02:57:29;4.93;;;4.10;;
10088;SDS011;51898;49.864;8.550;2023-05-07T03:00:31;4.20;;;3.80;;
10088;SDS011;51898;49.864;8.550;2023-05-07T03:03:32;4.37;;;3.97;;
10088;SDS011;51898;49.864;8.550;2023-05-07T03:06:34;4.00;;;3.53;;
10088;SDS011;51898;49.864;8.550;2023-05-07T03:09:36;4.50;;;4.10;;
10088;SDS011;51898;49.864;8.550;2023-05-07T03:12:37;4.57;;;3.87;;
10088;SDS011;51898;49.864;8.550;2023-05-07T03:15:39;5.80;;;4.30;;
10088;SDS011;51898;49.864;8.550;2023-05-07T03:18:41;5.03;;;4.53;;
10088;SDS011;51898;49.864;8.550;2023-05-07T03:21:42;5.13;;;4.60;;
10088;SDS011;51898;49.864;8.550;2023-05-07T03:24:44;7.50;;;4.57;;
10088;SDS011;51898;49.864;8.550;2023-05-07T03:27:46;5.37;;;3.93;;
10088;SDS011;51898;49.864;8.550;2023-05-07T03:30:47;5.47;;;4.20;;
10088;SDS011;51898;49.864;8.550;2023-05-07T03:33:50;5.43;;;4.20;;
10088;SDS011;51898;49.864;8.550;2023-05-07T03:36:53;4.97;;;4.57;;
10088;SDS011;51898;49.864;8.550;2023-05-07T03:39:54;5.57;;;5.00;;
10088;SDS011;51898;49.864;8.550;2023-05-07T03:42:56;5.20;;;4.50;;
10088;SDS011;51898;49.864;8.550;2023-05-07T03:45:57;6.13;;;4.43;;
10088;SDS011;51898;49.864;8.550;2023-05-07T03:48:59;5.03;;;4.53;;
10088;SDS011;51898;49.864;8.550;2023-05-07T03:52:01;4.63;;;4.20;;
10088;SDS011;51898;49.864;8.550;2023-05-07T03:55:03;7.70;;;4.63;;
10088;SDS011;51898;49.864;8.550;2023-05-07T03:58:04;5.93;;;3.93;;
10088;SDS011;51898;49.864;8.550;2023-05-07T04:01:06;6.20;;;4.57;;
10088;SDS011;51898;49.864;8.550;2023-05-07T04:04:08;5.00;;;4.50;;
10088;SDS011;51898;49.864;8.550;2023-05-07T04:07:10;5.27;;;4.77;;
10088;SDS011;51898;49.864;8.550;2023-05-07T04:10:11;4.50;;;4.10;;
10088;SDS011;51898;49.864;8.550;2023-05-07T04:13:14;5.93;;;4.37;;
10088;SDS011;51898;49.864;8.550;2023-05-07T04:16:16;7.03;;;4.43;;
10088;SDS011;51898;49.864;8.550;2023-05-07T04:19:17;4.97;;;4.13;;
10088;SDS011;51898;49.864;8.550;2023-05-07T04:22:19;4.83;;;4.13;;
10088;SDS011;51898;49.864;8.550;2023-05-07T04:25:21;4.30;;;3.90;;
10088;SDS011;51898;49.864;8.550;2023-05-07T04:28:23;4.40;;;4.10;;
10088;SDS011;51898;49.864;8.550;2023-05-07T04:31:25;4.80;;;4.00;;
10088;SDS011;51898;49.864;8.550;2023-05-07T04:34:27;4.40;;;4.00;;
10088;SDS011;51898;49.864;8.550;2023-05-07T04:37:28;5.73;;;4.00;;
10088;SDS011;51898;49.864;8.550;2023-05-07T04:40:30;5.20;;;3.87;;
10088;SDS011;51898;49.864;8.550;2023-05-07T04:43:32;9.17;;;4.00;;
10088;SDS011;51898;49.864;8.550;2023-05-07T04:46:34;4.57;;;3.97;;
10088;SDS011;51898;49.864;8.550;2023-05-07T04:49:36;4.33;;;3.93;;
10088;SDS011;51898;49.864;8.550;2023-05-07T04:52:39;5.40;;;3.93;;
10088;SDS011;51898;49.864;8.550;2023-05-07T04:55:40;4.77;;;4.10;;
10088;SDS011;51898;49.864;8.550;2023-05-07T04:58:42;4.37;;;3.60;;
10088;SDS011;51898;49.864;8.550;2023-05-07T05:01:44;5.40;;;4.13;;
10088;SDS011;51898;49.864;8.550;2023-05-07T05:04:46;4.57;;;3.93;;
10088;SDS011;51898;49.864;8.550;2023-05-07T05:07:47;8.67;;;3.90;;
10088;SDS011;51898;49.864;8.550;2023-05-07T05:10:49;6.60;;;3.37;;
10088;SDS011;51898;49.864;8.550;2023-05-07T05:13:51;5.87;;;3.87;;
10088;SDS011;51898;49.864;8.550;2023-05-07T05:16:52;3.90;;;3.50;;
10088;SDS011;51898;49.864;8.550;2023-05-07T05:19:54;5.37;;;3.90;;
10088;SDS011;51898;49.864;8.550;2023-05-07T05:22:56;4.20;;;3.40;;
10088;SDS011;51898;49.864;8.550;2023-05-07T05:25:58;6.00;;;3.97;;
10088;SDS011;51898;49.864;8.550;2023-05-07T05:29:00;5.30;;;3.63;;
10088;SDS011;51898;49.864;8.550;2023-05-07T05:32:01;6.27;;;3.90;;
10088;SDS011;51898;49.864;8.550;2023-05-07T05:35:03;4.73;;;3.13;;
10088;SDS011;51898;49.864;8.550;2023-05-07T05:38:05;4.10;;;3.70;;
10088;SDS011;51898;49.864;8.550;2023-05-07T05:41:07;3.60;;;3.27;;
10088;SDS011;51898;49.864;8.550;2023-05-07T05:44:08;3.73;;;3.20;;
10088;SDS011;51898;49.864;8.550;2023-05-07T05:47:10;4.53;;;3.60;;
10088;SDS011;51898;49.864;8.550;2023-05-07T05:50:12;4.13;;;3.30;;
10088;SDS011;51898;49.864;8.550;2023-05-07T05:53:13;3.67;;;3.00;;
10088;SDS011;51898;49.864;8.550;2023-05-07T05:56:15;5.23;;;3.50;;
10088;SDS011;51898;49.864;8.550;2023-05-07T05:59:17;14.13;;;3.50;;
10088;SDS011;51898;49.864;8.550;2023-05-07T06:02:19;3.40;;;3.20;;
10088;SDS011;51898;49.864;8.550;2023-05-07T06:05:21;4.10;;;3.57;;
10088;SDS011;51898;49.864;8.550;2023-05-07T06:08:23;5.10;;;3.50;;
10088;SDS011;51898;49.864;8.550;2023-05-07T06:11:25;3.30;;;3.00;;
10088;SDS011;51898;49.864;8.550;2023-05-07T06:14:26;3.40;;;2.63;;
10088;SDS011;51898;49.864;8.550;2023-05-07T06:17:28;3.70;;;3.40;;
10088;SDS011;51898;49.864;8.550;2023-05-07T06:20:30;4.10;;;3.00;;
10088;SDS011;51898;49.864;8.550;2023-05-07T06:23:31;3.70;;;2.97;;
10088;SDS011;51898;49.864;8.550;2023-05-07T06:26:33;3.90;;;3.60;;
10088;SDS011;51898;49.864;8.550;2023-05-07T06:29:34;4.23;;;3.60;;
10088;SDS011;51898;49.864;8.550;2023-05-07T06:32:36;4.67;;;3.40;;
10088;SDS011;51898;49.864;8.550;2023-05-07T06:35:38;8.93;;;4.00;;
10088;SDS011;51898;49.864;8.550;2023-05-07T06:38:40;3.40;;;3.10;;
10088;SDS011;51898;49.864;8.550;2023-05-07T06:41:41;4.10;;;3.70;;
10088;SDS011;51898;49.864;8.550;2023-05-07T06:44:43;4.23;;;3.77;;
10088;SDS011;51898;49.864;8.550;2023-05-07T06:47:44;5.27;;;4.47;;
10088;SDS011;51898;49.864;8.550;2023-05-07T06:50:46;3.90;;;3.37;;
10088;SDS011;51898;49.864;8.550;2023-05-07T06:53:48;3.87;;;3.47;;
10088;SDS011;51898;49.864;8.550;2023-05-07T06:56:49;3.77;;;3.47;;
10088;SDS011;51898;49.864;8.550;2023-05-07T06:59:51;4.00;;;3.53;;
10088;SDS011;51898;49.864;8.550;2023-05-07T07:02:53;3.67;;;3.30;;
10088;SDS011;51898;49.864;8.550;2023-05-07T07:05:55;3.83;;;3.00;;
10088;SDS011;51898;49.864;8.550;2023-05-07T07:08:57;3.57;;;3.27;;
10088;SDS011;51898;49.864;8.550;2023-05-07T07:11:59;4.60;;;4.10;;
10088;SDS011;51898;49.864;8.550;2023-05-07T07:15:01;4.10;;;3.77;;
10088;SDS011;51898;49.864;8.550;2023-05-07T07:18:03;3.93;;;3.50;;
10088;SDS011;51898;49.864;8.550;2023-05-07T07:21:05;6.57;;;3.50;;
10088;SDS011;51898;49.864;8.550;2023-05-07T07:24:07;4.70;;;3.20;;
10088;SDS011;51898;49.864;8.550;2023-05-07T07:27:08;5.07;;;3.40;;
10088;SDS011;51898;49.864;8.550;2023-05-07T07:30:10;4.00;;;3.60;;
10088;SDS011;51898;49.864;8.550;2023-05-07T07:33:12;4.10;;;3.47;;
10088;SDS011;51898;49.864;8.550;2023-05-07T07:36:14;5.90;;;3.47;;
10088;SDS011;51898;49.864;8.550;2023-05-07T07:39:16;6.70;;;3.63;;
10088;SDS011;51898;49.864;8.550;2023-05-07T07:42:17;4.03;;;3.60;;
10088;SDS011;51898;49.864;8.550;2023-05-07T07:45:19;3.60;;;3.40;;
10088;SDS011;51898;49.864;8.550;2023-05-07T07:48:21;4.77;;;3.40;;
10088;SDS011;51898;49.864;8.550;2023-05-07T07:51:23;3.73;;;3.43;;
10088;SDS011;51898;49.864;8.550;2023-05-07T07:54:25;3.87;;;3.53;;
10088;SDS011;51898;49.864;8.550;2023-05-07T07:57:26;3.87;;;3.57;;
10088;SDS011;51898;49.864;8.550;2023-05-07T08:00:28;4.27;;;3.53;;
10088;SDS011;51898;49.864;8.550;2023-05-07T08:03:30;3.50;;;3.27;;
10088;SDS011;51898;49.864;8.550;2023-05-07T08:06:33;6.00;;;3.57;;
10088;SDS011;51898;49.864;8.550;2023-05-07T08:09:36;4.13;;;3.80;;
10088;SDS011;51898;49.864;8.550;2023-05-07T08:12:38;4.03;;;3.70;;
10088;SDS011;51898;49.864;8.550;2023-05-07T08:15:40;4.00;;;3.63;;
10088;SDS011;51898;49.864;8.550;2023-05-07T08:18:42;5.50;;;3.73;;
10088;SDS011;51898;49.864;8.550;2023-05-07T08:21:43;4.47;;;3.50;;
10088;SDS011;51898;49.864;8.550;2023-05-07T08:24:45;4.63;;;4.23;;
10088;SDS011;51898;49.864;8.550;2023-05-07T08:27:47;4.00;;;3.70;;
10088;SDS011;51898;49.864;8.550;2023-05-07T08:30:48;5.33;;;4.03;;
10088;SDS011;51898;49.864;8.550;2023-05-07T08:33:50;3.97;;;3.67;;
10088;SDS011;51898;49.864;8.550;2023-05-07T08:36:52;4.00;;;3.30;;
10088;SDS011;51898;49.864;8.550;2023-05-07T08:39:54;4.33;;;3.50;;
10088;SDS011;51898;49.864;8.550;2023-05-07T08:42:55;6.07;;;4.00;;
10088;SDS011;51898;49.864;8.550;2023-05-07T08:45:57;5.10;;;3.97;;
10088;SDS011;51898;49.864;8.550;2023-05-07T08:49:03;5.03;;;3.70;;
10088;SDS011;51898;49.864;8.550;2023-05-07T08:52:05;4.53;;;4.10;;
10088;SDS011;51898;49.864;8.550;2023-05-07T08:55:10;4.70;;;3.77;;
10088;SDS011;51898;49.864;8.550;2023-05-07T08:58:12;6.70;;;4.43;;
10088;SDS011;51898;49.864;8.550;2023-05-07T09:01:15;6.77;;;4.37;;
10088;SDS011;51898;49.864;8.550;2023-05-07T09:04:17;4.47;;;4.00;;
10088;SDS011;51898;49.864;8.550;2023-05-07T09:07:19;4.40;;;4.03;;
10088;SDS011;51898;49.864;8.550;2023-05-07T09:10:21;5.10;;;4.40;;
10088;SDS011;51898;49.864;8.550;2023-05-07T09:13:23;4.83;;;4.43;;
10088;SDS011;51898;49.864;8.550;2023-05-07T09:16:26;3.90;;;3.60;;
10088;SDS011;51898;49.864;8.550;2023-05-07T09:19:28;4.87;;;4.23;;
10088;SDS011;51898;49.864;8.550;2023-05-07T09:22:31;4.73;;;4.17;;
10088;SDS011;51898;49.864;8.550;2023-05-07T09:25:38;5.20;;;4.80;;
10088;SDS011;51898;49.864;8.550;2023-05-07T09:28:40;4.80;;;4.40;;
10088;SDS011;51898;49.864;8.550;2023-05-07T09:31:45;4.13;;;3.83;;
10088;SDS011;51898;49.864;8.550;2023-05-07T09:34:46;4.70;;;4.30;;
10088;SDS011;51898;49.864;8.550;2023-05-07T09:37:48;4.80;;;4.30;;
10088;SDS011;51898;49.864;8.550;2023-05-07T09:41:01;4.97;;;4.60;;
10088;SDS011;51898;49.864;8.550;2023-05-07T09:44:04;4.80;;;4.40;;
10088;SDS011;51898;49.864;8.550;2023-05-07T09:47:10;5.90;;;4.90;;
10088;SDS011;51898;49.864;8.550;2023-05-07T09:50:12;5.20;;;4.77;;
10088;SDS011;51898;49.864;8.550;2023-05-07T09:53:17;7.43;;;5.20;;
10088;SDS011;51898;49.864;8.550;2023-05-07T09:56:20;4.70;;;4.30;;
10088;SDS011;51898;49.864;8.550;2023-05-07T09:59:22;5.80;;;5.00;;
10088;SDS011;51898;49.864;8.550;2023-05-07T10:02:25;5.13;;;4.67;;
10088;SDS011;51898;49.864;8.550;2023-05-07T10:05:31;4.90;;;4.57;;
10088;SDS011;51898;49.864;8.550;2023-05-07T10:08:34;4.97;;;4.57;;
10088;SDS011;51898;49.864;8.550;2023-05-07T10:11:36;4.83;;;4.50;;
10088;SDS011;51898;49.864;8.550;2023-05-07T10:14:38;4.87;;;4.47;;
10088;SDS011;51898;49.864;8.550;2023-05-07T10:17:40;5.50;;;4.87;;
10088;SDS011;51898;49.864;8.550;2023-05-07T10:20:42;6.50;;;5.10;;
10088;SDS011;51898;49.864;8.550;2023-05-07T10:23:50;5.33;;;4.93;;
10088;SDS011;51898;49.864;8.550;2023-05-07T10:27:12;5.30;;;4.80;;
10088;SDS011;51898;49.864;8.550;2023-05-07T10:30:33;5.47;;;5.07;;
10088;SDS011;51898;49.864;8.550;2023-05-07T10:33:46;5.20;;;4.77;;
10088;SDS011;51898;49.864;8.550;2023-05-07T10:36:49;5.67;;;5.17;;
10088;SDS011;51898;49.864;8.550;2023-05-07T10:39:52;4.97;;;4.57;;
10088;SDS011;51898;49.864;8.550;2023-05-07T10:43:01;5.33;;;4.77;;
10088;SDS011;51898;49.864;8.550;2023-05-07T10:49:20;5.03;;;4.60;;
10088;SDS011;51898;49.864;8.550;2023-05-07T10:52:24;5.50;;;5.00;;
10088;SDS011;51898;49.864;8.550;2023-05-07T10:55:31;5.37;;;4.97;;
10088;SDS011;51898;49.864;8.550;2023-05-07T10:58:32;4.60;;;4.30;;
10088;SDS011;51898;49.864;8.550;2023-05-07T11:01:55;5.90;;;5.40;;
10088;SDS011;51898;49.864;8.550;2023-05-07T11:05:18;6.30;;;5.70;;
10088;SDS011;51898;49.864;8.550;2023-05-07T11:08:23;5.20;;;4.80;;
10088;SDS011;51898;49.864;8.550;2023-05-07T11:14:49;5.23;;;4.83;;
10088;SDS011;51898;49.864;8.550;2023-05-07T11:20:56;4.90;;;4.43;;
10088;SDS011;51898;49.864;8.550;2023-05-07T11:24:00;4.87;;;4.47;;
10088;SDS011;51898;49.864;8.550;2023-05-07T11:27:03;4.90;;;4.50;;
10088;SDS011;51898;49.864;8.550;2023-05-07T11:30:05;5.17;;;4.73;;
10088;SDS011;51898;49.864;8.550;2023-05-07T11:33:07;5.17;;;4.77;;
10088;SDS011;51898;49.864;8.550;2023-05-07T11:36:09;4.47;;;4.07;;
10088;SDS011;51898;49.864;8.550;2023-05-07T11:39:32;4.93;;;4.63;;
10088;SDS011;51898;49.864;8.550;2023-05-07T11:42:37;4.53;;;4.13;;
10088;SDS011;51898;49.864;8.550;2023-05-07T11:45:40;4.50;;;4.20;;
10088;SDS011;51898;49.864;8.550;2023-05-07T11:48:41;4.80;;;4.40;;
10088;SDS011;51898;49.864;8.550;2023-05-07T11:51:44;4.63;;;4.20;;
10088;SDS011;51898;49.864;8.550;2023-05-07T11:54:54;4.33;;;4.03;;
10088;SDS011;51898;49.864;8.550;2023-05-07T11:57:57;5.07;;;4.67;;
10088;SDS011;51898;49.864;8.550;2023-05-07T12:00:59;4.53;;;4.13;;
10088;SDS011;51898;49.864;8.550;2023-05-07T12:04:02;5.23;;;4.73;;
10088;SDS011;51898;49.864;8.550;2023-05-07T12:07:05;5.50;;;5.00;;
10088;SDS011;51898;49.864;8.550;2023-05-07T12:10:07;4.73;;;4.30;;
10088;SDS011;51898;49.864;8.550;2023-05-07T12:13:15;5.00;;;4.70;;
10088;SDS011;51898;49.864;8.550;2023-05-07T12:16:18;5.23;;;4.77;;
10088;SDS011;51898;49.864;8.550;2023-05-07T12:19:20;4.80;;;4.40;;
10088;SDS011;51898;49.864;8.550;2023-05-07T12:22:23;4.10;;;3.90;;
10088;SDS011;51898;49.864;8.550;2023-05-07T12:25:24;4.37;;;4.07;;
10088;SDS011;51898;49.864;8.550;2023-05-07T12:28:26;4.73;;;4.33;;
10088;SDS011;51898;49.864;8.550;2023-05-07T12:31:28;4.20;;;3.90;;
10088;SDS011;51898;49.864;8.550;2023-05-07T12:34:31;3.93;;;3.73;;
10088;SDS011;51898;49.864;8.550;2023-05-07T12:37:32;4.43;;;4.13;;
10088;SDS011;51898;49.864;8.550;2023-05-07T12:40:37;4.60;;;4.20;;
10088;SDS011;51898;49.864;8.550;2023-05-07T12:43:40;4.07;;;3.77;;
10088;SDS011;51898;49.864;8.550;2023-05-07T12:46:46;3.50;;;3.30;;
10088;SDS011;51898;49.864;8.550;2023-05-07T12:49:48;4.30;;;4.00;;
10088;SDS011;51898;49.864;8.550;2023-05-07T12:52:49;4.80;;;4.40;;
10088;SDS011;51898;49.864;8.550;2023-05-07T12:55:55;3.70;;;3.50;;
10088;SDS011;51898;49.864;8.550;2023-05-07T12:58:59;5.43;;;3.73;;
10088;SDS011;51898;49.864;8.550;2023-05-07T13:02:00;4.50;;;4.20;;
10088;SDS011;51898;49.864;8.550;2023-05-07T13:05:02;5.03;;;4.50;;
10088;SDS011;51898;49.864;8.550;2023-05-07T13:08:04;4.70;;;4.40;;
10088;SDS011;51898;49.864;8.550;2023-05-07T13:11:07;5.23;;;4.83;;
10088;SDS011;51898;49.864;8.550;2023-05-07T13:14:09;4.70;;;4.37;;
10088;SDS011;51898;49.864;8.550;2023-05-07T13:17:10;4.80;;;4.40;;
10088;SDS011;51898;49.864;8.550;2023-05-07T13:20:12;4.70;;;4.40;;
10088;SDS011;51898;49.864;8.550;2023-05-07T13:23:14;4.73;;;4.33;;
10088;SDS011;51898;49.864;8.550;2023-05-07T13:26:16;4.93;;;4.37;;
10088;SDS011;51898;49.864;8.550;2023-05-07T13:29:27;4.70;;;4.40;;
10088;SDS011;51898;49.864;8.550;2023-05-07T13:32:33;4.63;;;4.33;;
10088;SDS011;51898;49.864;8.550;2023-05-07T13:35:34;4.73;;;4.37;;
10088;SDS011;51898;49.864;8.550;2023-05-07T13:38:36;4.63;;;4.33;;
10088;SDS011;51898;49.864;8.550;2023-05-07T13:41:38;4.20;;;3.90;;
10088;SDS011;51898;49.864;8.550;2023-05-07T13:44:40;4.10;;;3.83;;
10088;SDS011;51898;49.864;8.550;2023-05-07T13:47:41;4.30;;;3.90;;
10088;SDS011;51898;49.864;8.550;2023-05-07T13:50:43;4.80;;;4.50;;
10088;SDS011;51898;49.864;8.550;2023-05-07T13:53:44;5.00;;;4.40;;
10088;SDS011;51898;49.864;8.550;2023-05-07T13:56:46;4.67;;;4.37;;
10088;SDS011;51898;49.864;8.550;2023-05-07T13:59:48;4.30;;;3.90;;
10088;SDS011;51898;49.864;8.550;2023-05-07T14:02:50;4.13;;;3.93;;
10088;SDS011;51898;49.864;8.550;2023-05-07T14:05:52;4.60;;;4.30;;
10088;SDS011;51898;49.864;8.550;2023-05-07T14:08:53;4.17;;;3.87;;
10088;SDS011;51898;49.864;8.550;2023-05-07T14:11:55;4.40;;;4.10;;
10088;SDS011;51898;49.864;8.550;2023-05-07T14:14:56;4.37;;;4.00;;
10088;SDS011;51898;49.864;8.550;2023-05-07T14:17:58;4.43;;;4.13;;
10088;SDS011;51898;49.864;8.550;2023-05-07T14:21:01;4.57;;;4.27;;
10088;SDS011;51898;49.864;8.550;2023-05-07T14:24:03;5.43;;;5.00;;
10088;SDS011;51898;49.864;8.550;2023-05-07T14:27:07;4.40;;;4.10;;
10088;SDS011;51898;49.864;8.550;2023-05-07T14:30:08;4.57;;;4.17;;
10088;SDS011;51898;49.864;8.550;2023-05-07T14:33:11;4.33;;;4.03;;
10088;SDS011;51898;49.864;8.550;2023-05-07T14:36:12;4.93;;;3.93;;
10088;SDS011;51898;49.864;8.550;2023-05-07T14:39:14;3.93;;;3.73;;
10088;SDS011;51898;49.864;8.550;2023-05-07T14:42:16;4.83;;;4.43;;
10088;SDS011;51898;49.864;8.550;2023-05-07T14:45:18;4.43;;;3.97;;
10088;SDS011;51898;49.864;8.550;2023-05-07T14:48:19;4.17;;;3.80;;
10088;SDS011;51898;49.864;8.550;2023-05-07T14:51:21;4.47;;;4.17;;
10088;SDS011;51898;49.864;8.550;2023-05-07T14:54:23;4.70;;;4.40;;
10088;SDS011;51898;49.864;8.550;2023-05-07T14:57:24;4.70;;;4.40;;
10088;SDS011;51898;49.864;8.550;2023-05-07T15:00:26;5.17;;;4.77;;
10088;SDS011;51898;49.864;8.550;2023-05-07T15:03:29;4.83;;;4.43;;
10088;SDS011;51898;49.864;8.550;2023-05-07T15:06:31;5.50;;;5.00;;
10088;SDS011;51898;49.864;8.550;2023-05-07T15:09:34;5.10;;;4.80;;
10088;SDS011;51898;49.864;8.550;2023-05-07T15:12:36;5.83;;;5.33;;
10088;SDS011;51898;49.864;8.550;2023-05-07T15:15:38;5.33;;;4.83;;
10088;SDS011;51898;49.864;8.550;2023-05-07T15:18:40;4.20;;;3.90;;
10088;SDS011;51898;49.864;8.550;2023-05-07T15:21:41;5.30;;;5.00;;
10088;SDS011;51898;49.864;8.550;2023-05-07T15:24:43;5.20;;;4.80;;
10088;SDS011;51898;49.864;8.550;2023-05-07T15:27:45;4.93;;;4.53;;
10088;SDS011;51898;49.864;8.550;2023-05-07T15:30:46;5.27;;;4.87;;
10088;SDS011;51898;49.864;8.550;2023-05-07T15:33:48;5.50;;;5.00;;
10088;SDS011;51898;49.864;8.550;2023-05-07T15:36:52;5.23;;;4.83;;
10088;SDS011;51898;49.864;8.550;2023-05-07T15:39:56;4.77;;;4.37;;
10088;SDS011;51898;49.864;8.550;2023-05-07T15:42:57;4.90;;;4.30;;
10088;SDS011;51898;49.864;8.550;2023-05-07T15:45:59;5.17;;;4.60;;
10088;SDS011;51898;49.864;8.550;2023-05-07T15:49:01;5.87;;;4.43;;
10088;SDS011;51898;49.864;8.550;2023-05-07T15:52:06;5.30;;;4.07;;
10088;SDS011;51898;49.864;8.550;2023-05-07T15:55:11;6.93;;;3.90;;
10088;SDS011;51898;49.864;8.550;2023-05-07T15:58:13;5.70;;;3.67;;
10088;SDS011;51898;49.864;8.550;2023-05-07T16:01:14;3.73;;;3.20;;
10088;SDS011;51898;49.864;8.550;2023-05-07T16:04:16;5.50;;;3.33;;
10088;SDS011;51898;49.864;8.550;2023-05-07T16:07:18;7.50;;;3.37;;
10088;SDS011;51898;49.864;8.550;2023-05-07T16:10:19;5.67;;;3.50;;
10088;SDS011;51898;49.864;8.550;2023-05-07T16:13:21;4.10;;;3.60;;
10088;SDS011;51898;49.864;8.550;2023-05-07T16:16:25;7.03;;;3.10;;
10088;SDS011;51898;49.864;8.550;2023-05-07T16:19:29;5.43;;;3.73;;
10088;SDS011;51898;49.864;8.550;2023-05-07T16:22:31;4.13;;;3.80;;
10088;SDS011;51898;49.864;8.550;2023-05-07T16:25:33;6.40;;;5.30;;
10088;SDS011;51898;49.864;8.550;2023-05-07T16:28:35;6.70;;;5.10;;
10088;SDS011;51898;49.864;8.550;2023-05-07T16:31:37;9.17;;;6.63;;
10088;SDS011;51898;49.864;8.550;2023-05-07T16:34:39;5.40;;;4.80;;
10088;SDS011;51898;49.864;8.550;2023-05-07T16:37:40;5.27;;;4.33;;
10088;SDS011;51898;49.864;8.550;2023-05-07T16:40:42;4.03;;;3.60;;
10088;SDS011;51898;49.864;8.550;2023-05-07T16:43:44;4.90;;;3.63;;
10088;SDS011;51898;49.864;8.550;2023-05-07T16:46:46;5.13;;;4.57;;
10088;SDS011;51898;49.864;8.550;2023-05-07T16:49:47;5.40;;;4.90;;
10088;SDS011;51898;49.864;8.550;2023-05-07T16:52:50;4.50;;;4.10;;
10088;SDS011;51898;49.864;8.550;2023-05-07T16:55:52;4.03;;;3.63;;
10088;SDS011;51898;49.864;8.550;2023-05-07T16:58:56;5.67;;;4.43;;
10088;SDS011;51898;49.864;8.550;2023-05-07T17:01:58;4.90;;;4.10;;
10088;SDS011;51898;49.864;8.550;2023-05-07T17:04:59;4.40;;;4.00;;
10088;SDS011;51898;49.864;8.550;2023-05-07T17:08:01;5.07;;;3.73;;
10088;SDS011;51898;49.864;8.550;2023-05-07T17:11:03;4.90;;;3.90;;
10088;SDS011;51898;49.864;8.550;2023-05-07T17:14:04;7.40;;;4.50;;
10088;SDS011;51898;49.864;8.550;2023-05-07T17:17:06;4.60;;;4.03;;
10088;SDS011;51898;49.864;8.550;2023-05-07T17:20:08;5.10;;;4.50;;
10088;SDS011;51898;49.864;8.550;2023-05-07T17:23:11;5.23;;;4.73;;
10088;SDS011;51898;49.864;8.550;2023-05-07T17:26:13;5.17;;;4.20;;
10088;SDS011;51898;49.864;8.550;2023-05-07T17:29:15;5.10;;;4.60;;
10088;SDS011;51898;49.864;8.550;2023-05-07T17:32:16;6.23;;;4.80;;
10088;SDS011;51898;49.864;8.550;2023-05-07T17:35:18;5.00;;;4.20;;
10088;SDS011;51898;49.864;8.550;2023-05-07T17:38:19;4.83;;;4.33;;
10088;SDS011;51898;49.864;8.550;2023-05-07T17:41:21;4.47;;;4.07;;
10088;SDS011;51898;49.864;8.550;2023-05-07T17:44:23;4.60;;;3.63;;
10088;SDS011;51898;49.864;8.550;2023-05-07T17:47:25;4.23;;;3.90;;
10088;SDS011;51898;49.864;8.550;2023-05-07T17:50:26;5.90;;;3.77;;
10088;SDS011;51898;49.864;8.550;2023-05-07T17:53:29;3.83;;;3.53;;
10088;SDS011;51898;49.864;8.550;2023-05-07T17:56:31;4.40;;;4.00;;
10088;SDS011;51898;49.864;8.550;2023-05-07T17:59:32;3.57;;;3.27;;
10088;SDS011;51898;49.864;8.550;2023-05-07T18:02:34;4.30;;;3.90;;
10088;SDS011;51898;49.864;8.550;2023-05-07T18:05:37;4.17;;;3.67;;
10088;SDS011;51898;49.864;8.550;2023-05-07T18:08:39;4.87;;;4.20;;
10088;SDS011;51898;49.864;8.550;2023-05-07T18:11:41;5.30;;;4.80;;
10088;SDS011;51898;49.864;8.550;2023-05-07T18:14:42;4.30;;;3.83;;
10088;SDS011;51898;49.864;8.550;2023-05-07T18:17:44;3.97;;;3.67;;
10088;SDS011;51898;49.864;8.550;2023-05-07T18:20:49;4.03;;;3.70;;
10088;SDS011;51898;49.864;8.550;2023-05-07T18:23:51;4.67;;;4.27;;
10088;SDS011;51898;49.864;8.550;2023-05-07T18:26:52;8.17;;;4.50;;
10088;SDS011;51898;49.864;8.550;2023-05-07T18:29:54;8.60;;;6.60;;